createdAt,value
2023-03-11T00:02:19.157Z,13.5
2023-03-11T00:04:50.663Z,13.5
2023-03-11T00:07:21.750Z,13.5
2023-03-11T00:09:52.038Z,13.5
2023-03-11T00:12:23.722Z,13.5
2023-03-11T00:14:54.653Z,13.4
2023-03-11T00:17:25.384Z,13.5
2023-03-11T00:19:56.268Z,13.6
2023-03-11T00:22:30.201Z,13.5
2023-03-11T00:25:00.933Z,13.6
2023-03-11T00:27:31.306Z,13.6
2023-03-11T00:30:01.390Z,13.6
2023-03-11T00:32:32.360Z,13.5
2023-03-11T00:35:01.880Z,13.6
2023-03-11T00:37:32.515Z,13.7
2023-03-11T00:40:03.463Z,13.7
2023-03-11T00:42:34.741Z,13.7
2023-03-11T00:45:05.202Z,13.7
2023-03-11T00:47:36.236Z,13.6
2023-03-11T00:50:06.548Z,13.7
2023-03-11T00:52:37.078Z,13.6
2023-03-11T00:55:07.590Z,13.7
2023-03-11T00:57:38.608Z,13.6
2023-03-11T01:00:08.897Z,13.6
2023-03-11T01:02:40.332Z,13.7
2023-03-11T01:05:11.036Z,13.7
2023-03-11T01:07:41.862Z,13.7
2023-03-11T01:10:12.708Z,13.7
2023-03-11T01:12:42.469Z,13.7
2023-03-11T01:15:13.140Z,13.7
2023-03-11T01:17:43.915Z,13.7
2023-03-11T01:20:15.696Z,13.8
2023-03-11T01:22:47.152Z,13.6
2023-03-11T01:25:18.019Z,13.7
2023-03-11T01:27:49.186Z,13.6
2023-03-11T01:30:19.729Z,13.4
2023-03-11T01:32:51.060Z,13.5
2023-03-11T01:35:21.534Z,13.6
2023-03-11T01:37:51.781Z,13.6
2023-03-11T01:40:22.583Z,13.6
2023-03-11T01:42:53.660Z,13.5
2023-03-11T01:45:24.144Z,13.6
2023-03-11T01:47:54.921Z,13.6
2023-03-11T01:50:25.740Z,13.7
2023-03-11T01:52:56.940Z,13.6
2023-03-11T01:55:27.820Z,13.5
2023-03-11T01:57:59.617Z,13.5
2023-03-11T02:00:30.876Z,13.4
2023-03-11T02:03:01.832Z,13.4
2023-03-11T02:05:32.559Z,13.5
2023-03-11T02:08:03.029Z,13.5
2023-03-11T02:10:33.657Z,13.4
2023-03-11T02:13:04.605Z,13.5
2023-03-11T02:15:35.225Z,13.4
2023-03-11T02:18:05.698Z,13.6
2023-03-11T02:20:36.956Z,13.5
2023-03-11T02:23:07.765Z,13.5
2023-03-11T02:25:38.951Z,13.4
2023-03-11T02:28:09.677Z,13.4
2023-03-11T02:30:40.556Z,13.3
2023-03-11T02:33:11.041Z,13.4
2023-03-11T02:35:42.049Z,13.4
2023-03-11T02:38:12.706Z,13.3
2023-03-11T02:40:43.468Z,13.3
2023-03-11T02:43:14.174Z,13.3
2023-03-11T02:45:44.991Z,13.2
2023-03-11T02:48:16.066Z,13.1
2023-03-11T02:50:47.345Z,13.1
2023-03-11T02:53:18.613Z,13.1
2023-03-11T02:55:50.090Z,13.1
2023-03-11T02:58:21.175Z,13.1
2023-03-11T03:00:51.655Z,13.1
2023-03-11T03:03:22.261Z,13.2
2023-03-11T03:05:53.412Z,13.2
2023-03-11T03:08:23.945Z,13.1
2023-03-11T03:10:54.449Z,13.2
2023-03-11T03:13:25.126Z,13.2
2023-03-11T03:15:55.952Z,13.2
2023-03-11T03:18:25.247Z,13.2
2023-03-11T03:21:00.417Z,13.3
2023-03-11T03:23:31.908Z,13.1
2023-03-11T03:26:02.779Z,13.1
2023-03-11T03:28:31.978Z,13.1
2023-03-11T03:31:02.953Z,13.2
2023-03-11T03:33:33.549Z,13.2
2023-03-11T03:36:08.534Z,13.2
2023-03-11T03:38:39.342Z,13.1
2023-03-11T03:41:10.207Z,13.2
2023-03-11T03:43:41.480Z,13.2
2023-03-11T03:46:10.836Z,13.1
2023-03-11T03:48:41.333Z,13.2
2023-03-11T03:51:12.583Z,13.2
2023-03-11T03:53:43.581Z,13.2
2023-03-11T03:56:14.377Z,13.1
2023-03-11T03:58:45.585Z,13.1
2023-03-11T04:01:16.034Z,13.1
2023-03-11T04:03:46.991Z,13.1
2023-03-11T04:06:17.967Z,13.1
2023-03-11T04:08:48.892Z,13.1
2023-03-11T04:11:19.791Z,13
2023-03-11T04:13:50.544Z,13.1
2023-03-11T04:16:21.174Z,12.9
2023-03-11T04:18:51.822Z,12.9
2023-03-11T04:21:22.556Z,13
2023-03-11T04:23:53.203Z,13
2023-03-11T04:26:24.407Z,13.1
2023-03-11T04:28:55.151Z,13
2023-03-11T04:31:26.269Z,12.9
2023-03-11T04:33:57.665Z,12.9
2023-03-11T04:36:28.839Z,12.9
2023-03-11T04:38:59.702Z,13
2023-03-11T04:41:30.715Z,13.1
2023-03-11T04:44:01.692Z,12.9
2023-03-11T04:46:32.692Z,12.9
2023-03-11T04:49:03.737Z,12.9
2023-03-11T04:51:34.760Z,13
2023-03-11T04:54:05.319Z,12.9
2023-03-11T04:56:35.848Z,13
2023-03-11T04:59:06.682Z,13
2023-03-11T05:01:36.982Z,13.1
2023-03-11T05:04:07.617Z,12.9
2023-03-11T05:06:38.814Z,12.9
2023-03-11T05:09:10.290Z,12.8
2023-03-11T05:11:41.533Z,12.9
2023-03-11T05:14:11.772Z,12.9
2023-03-11T05:16:42.776Z,12.8
2023-03-11T05:19:13.072Z,12.8
2023-03-11T05:21:44.846Z,12.9
2023-03-11T05:24:15.639Z,13
2023-03-11T05:26:48.454Z,12.9
2023-03-11T05:29:16.840Z,12.9
2023-03-11T05:31:47.842Z,12.9
2023-03-11T05:34:19.056Z,12.9
2023-03-11T05:36:49.424Z,13
2023-03-11T05:39:20.724Z,12.9
2023-03-11T05:41:51.647Z,12.8
2023-03-11T05:44:22.046Z,12.8
2023-03-11T05:46:53.072Z,12.9
2023-03-11T05:49:23.392Z,12.9
2023-03-11T05:51:55.694Z,12.8
2023-03-11T05:54:25.021Z,12.8
2023-03-11T05:56:56.378Z,12.9
2023-03-11T05:59:27.031Z,12.9
2023-03-11T06:01:57.774Z,12.9
2023-03-11T06:04:29.028Z,12.9
2023-03-11T06:07:00.027Z,13
2023-03-11T06:09:34.106Z,13.1
2023-03-11T06:12:04.068Z,13.1
2023-03-11T06:14:34.790Z,13.1
2023-03-11T06:17:05.331Z,13.2
2023-03-11T06:19:36.484Z,13.1
2023-03-11T06:22:07.414Z,13
2023-03-11T06:24:39.477Z,12.9
2023-03-11T06:27:10.673Z,13
2023-03-11T06:29:41.816Z,13.1
2023-03-11T06:32:13.585Z,13.1
2023-03-11T06:34:43.952Z,13.1
2023-03-11T06:37:14.267Z,13
2023-03-11T06:39:45.442Z,13.1
2023-03-11T06:42:16.315Z,13.1
2023-03-11T06:44:48.064Z,13.1
2023-03-11T06:47:19.775Z,13
2023-03-11T06:49:50.755Z,13.2
2023-03-11T06:52:21.500Z,13.3
2023-03-11T06:54:52.095Z,13.3
2023-03-11T06:57:22.868Z,13.4
2023-03-11T06:59:53.486Z,13.3
2023-03-11T07:02:23.982Z,13.4
2023-03-11T07:04:54.420Z,13.4
2023-03-11T07:07:25.155Z,13.6
2023-03-11T07:09:55.713Z,13.6
2023-03-11T07:12:25.883Z,13.5
2023-03-11T07:14:56.403Z,13.5
2023-03-11T07:17:27.139Z,13.4
2023-03-11T07:19:57.673Z,13.4
2023-03-11T07:22:28.142Z,13.4
2023-03-11T07:24:58.412Z,13.4
2023-03-11T07:27:28.852Z,13.4
2023-03-11T07:29:59.292Z,13.4
2023-03-11T07:32:29.662Z,13.4
2023-03-11T07:35:00.331Z,13.4
2023-03-11T07:37:30.865Z,13.3
2023-03-11T07:40:01.678Z,13.3
2023-03-11T07:42:32.096Z,13.3
2023-03-11T07:45:02.434Z,13.2
2023-03-11T07:47:33.482Z,13.1
2023-03-11T07:50:03.930Z,13.2
2023-03-11T07:52:34.544Z,13.1
2023-03-11T07:55:04.920Z,13
2023-03-11T07:57:36.109Z,13
2023-03-11T08:00:06.761Z,13
2023-03-11T08:02:37.200Z,13.1
2023-03-11T08:05:08.681Z,13.1
2023-03-11T08:07:37.947Z,13.1
2023-03-11T08:10:08.668Z,13.1
2023-03-11T08:12:39.434Z,13.2
2023-03-11T08:15:10.453Z,13.2
2023-03-11T08:17:41.244Z,13.2
2023-03-11T08:20:11.676Z,13.1
2023-03-11T08:22:52.042Z,13
2023-03-11T08:25:13.197Z,12.8
2023-03-11T08:27:43.477Z,12.7
2023-03-11T08:30:13.406Z,12.6
2023-03-11T08:32:43.972Z,12.5
2023-03-11T08:35:14.520Z,12.4
2023-03-11T08:37:44.975Z,12.3
2023-03-11T08:40:16.139Z,12.3
2023-03-11T08:42:46.424Z,12.3
2023-03-11T08:45:17.061Z,12.3
2023-03-11T08:47:47.525Z,12.1
2023-03-11T08:50:18.199Z,12.1
2023-03-11T08:52:48.402Z,11.8
2023-03-11T08:55:18.946Z,11.8
2023-03-11T08:57:49.802Z,11.5
2023-03-11T09:00:19.365Z,11.5
2023-03-11T09:02:49.888Z,11.4
2023-03-11T09:05:20.301Z,11.3
2023-03-11T09:07:51.132Z,11
2023-03-11T09:10:21.420Z,10.8
2023-03-11T09:12:50.428Z,10.8
2023-03-11T09:15:20.774Z,10.7
2023-03-11T09:17:52.449Z,10.8
2023-03-11T09:20:22.533Z,10.8
2023-03-11T09:22:52.709Z,10.8
2023-03-11T09:25:26.170Z,10.7
2023-03-11T09:27:56.857Z,10.5
2023-03-11T09:30:28.189Z,10.3
2023-03-11T09:32:58.984Z,10.3
2023-03-11T09:35:29.534Z,10.1
2023-03-11T09:37:58.301Z,10.1
2023-03-11T09:40:28.646Z,9.7
2023-03-11T09:42:59.022Z,9.5
2023-03-11T09:45:29.015Z,9.5
2023-03-11T09:47:59.981Z,9.4
2023-03-11T09:50:30.262Z,9.4
2023-03-11T09:53:00.844Z,9.4
2023-03-11T09:55:32.470Z,9.5
2023-03-11T09:58:04.031Z,9.6
2023-03-11T10:00:33.986Z,9.3
2023-03-11T10:03:04.073Z,8.9
2023-03-11T10:05:34.114Z,8.5
2023-03-11T10:08:04.898Z,8.3
2023-03-11T10:10:36.186Z,8.4
2023-03-11T10:13:07.138Z,8.5
2023-03-11T10:15:39.439Z,8.4
2023-03-11T10:18:07.628Z,8.2
2023-03-11T10:20:38.184Z,8.4
2023-03-11T10:23:08.559Z,8.2
2023-03-11T10:25:39.092Z,8.4
2023-03-11T10:28:09.489Z,8.4
2023-03-11T10:30:40.015Z,8.4
2023-03-11T10:33:10.344Z,8.5
2023-03-11T10:35:40.791Z,8.4
2023-03-11T10:38:14.833Z,8.5
2023-03-11T10:40:44.750Z,8.4
2023-03-11T10:43:14.781Z,8.5
2023-03-11T10:45:44.464Z,8.5
2023-03-11T10:48:14.536Z,8.3
2023-03-11T10:50:44.771Z,8.4
2023-03-11T10:53:14.908Z,8.6
2023-03-11T10:55:45.147Z,8.6
2023-03-11T10:58:15.431Z,8.7
2023-03-11T11:00:45.612Z,8.6
2023-03-11T11:03:14.335Z,8.5
2023-03-11T11:05:45.294Z,8.4
2023-03-11T11:08:16.101Z,8.5
2023-03-11T11:10:46.330Z,8.4
2023-03-11T11:13:16.498Z,8.3
2023-03-11T11:15:47.646Z,7.9
2023-03-11T11:18:21.626Z,8
2023-03-11T11:20:52.866Z,8.1
2023-03-11T11:23:22.846Z,8.2
2023-03-11T11:25:52.990Z,8.4
2023-03-11T11:28:22.781Z,8.3
2023-03-11T11:30:53.836Z,8.2
2023-03-11T11:33:23.813Z,8
2023-03-11T11:35:54.864Z,8.1
2023-03-11T11:38:27.008Z,8.2
2023-03-11T11:40:57.335Z,8.2
2023-03-11T11:43:27.406Z,8.1
2023-03-11T11:45:58.011Z,8.2
2023-03-11T11:48:28.478Z,8
2023-03-11T11:51:00.931Z,8.1
2023-03-11T11:53:31.126Z,7.9
2023-03-11T11:56:01.060Z,7.9
2023-03-11T11:58:32.805Z,7.8
2023-03-11T12:01:04.056Z,7.8
2023-03-11T12:03:32.883Z,7.9
2023-03-11T12:06:03.235Z,8
2023-03-11T12:08:33.772Z,7.9
2023-03-11T12:11:04.284Z,7.9
2023-03-11T12:13:34.735Z,7.9
2023-03-11T12:16:03.814Z,8.1
2023-03-11T12:18:35.187Z,8.1
2023-03-11T12:21:05.737Z,8.3
2023-03-11T12:23:35.857Z,8.4
2023-03-11T12:26:06.413Z,8.4
2023-03-11T12:28:37.322Z,8.5
2023-03-11T12:31:07.369Z,8.5
2023-03-11T12:33:38.718Z,8.4
2023-03-11T12:36:08.899Z,8.6
2023-03-11T12:38:39.682Z,8.6
2023-03-11T12:41:10.659Z,8.7
2023-03-11T12:43:40.939Z,8.8
2023-03-11T12:46:12.712Z,8.9
2023-03-11T12:48:43.497Z,8.9
2023-03-11T12:51:13.614Z,9.1
2023-03-11T12:53:43.592Z,9.2
2023-03-11T12:56:13.913Z,9.3
2023-03-11T12:58:44.478Z,9.4
2023-03-11T13:01:14.788Z,9.5
2023-03-11T13:03:46.132Z,9.6
2023-03-11T13:06:17.156Z,9.6
2023-03-11T13:08:48.190Z,9.6
2023-03-11T13:11:18.498Z,9.7
2023-03-11T13:13:47.379Z,9.7
2023-03-11T13:16:17.775Z,9.7
2023-03-11T13:18:47.989Z,9.7
2023-03-11T13:21:18.934Z,9.8
2023-03-11T13:23:49.797Z,9.8
2023-03-11T13:26:21.230Z,9.8
2023-03-11T13:28:51.384Z,9.8
2023-03-11T13:31:21.550Z,9.8
2023-03-11T13:33:52.146Z,9.8
2023-03-11T13:36:22.190Z,9.9
2023-03-11T13:38:52.360Z,9.8
2023-03-11T13:41:22.391Z,9.8
2023-03-11T13:43:53.032Z,9.7
2023-03-11T13:46:23.111Z,9.9
2023-03-11T13:48:54.503Z,9.9
2023-03-11T13:51:24.944Z,9.8
2023-03-11T13:53:56.186Z,9.8
2023-03-11T13:56:26.580Z,9.9
2023-03-11T13:58:57.953Z,9.9
2023-03-11T14:01:28.205Z,9.8
2023-03-11T14:03:58.553Z,9.8
2023-03-11T14:06:30.414Z,9.8
2023-03-11T14:09:00.849Z,9.7
2023-03-11T14:11:30.840Z,9.8
2023-03-11T14:14:00.830Z,9.9
2023-03-11T14:16:31.328Z,10
2023-03-11T14:19:02.210Z,9.8
2023-03-11T14:21:35.869Z,9.7
2023-03-11T14:24:05.931Z,9.7
2023-03-11T14:26:36.405Z,9.8
2023-03-11T14:29:06.521Z,9.8
2023-03-11T14:31:36.792Z,9.8
2023-03-11T14:34:07.236Z,9.7
2023-03-11T14:36:36.191Z,9.6
2023-03-11T14:39:06.381Z,9.7
2023-03-11T14:41:36.701Z,9.6
2023-03-11T14:44:06.854Z,9.7
2023-03-11T14:46:37.460Z,9.7
2023-03-11T14:49:07.970Z,9.6
2023-03-11T14:51:38.116Z,9.6
2023-03-11T14:54:08.550Z,9.7
2023-03-11T14:56:38.990Z,9.6
2023-03-11T14:59:11.514Z,9.7
2023-03-11T15:01:39.996Z,9.6
2023-03-11T15:04:10.511Z,9.6
2023-03-11T15:06:41.151Z,9.6
2023-03-11T15:09:11.610Z,9.5
2023-03-11T15:11:41.926Z,9.6
2023-03-11T15:14:12.339Z,9.4
2023-03-11T15:16:42.589Z,9.4
2023-03-11T15:19:13.806Z,9.4
2023-03-11T15:21:44.385Z,9.5
2023-03-11T15:24:14.536Z,9.5
2023-03-11T15:26:44.678Z,9.5
2023-03-11T15:29:15.640Z,9.4
2023-03-11T15:31:45.630Z,9.5
2023-03-11T15:34:16.176Z,9.6
2023-03-11T15:36:46.593Z,9.6
2023-03-11T15:39:15.501Z,9.6
2023-03-11T15:41:46.043Z,9.5
2023-03-11T15:44:16.236Z,9.5
2023-03-11T15:46:46.914Z,9.4
2023-03-11T15:49:15.544Z,9.4
2023-03-11T15:51:45.768Z,9.5
2023-03-11T15:54:15.934Z,9.5
2023-03-11T15:56:45.947Z,9.3
2023-03-11T15:59:16.332Z,9.4
2023-03-11T16:01:46.699Z,9.4
2023-03-11T16:04:17.300Z,9.3
2023-03-11T16:06:53.902Z,9.3
2023-03-11T16:09:17.799Z,9.3
2023-03-11T16:11:48.201Z,9.4
2023-03-11T16:14:18.325Z,9.3
2023-03-11T16:16:48.462Z,9.4
2023-03-11T16:19:19.024Z,9.5
2023-03-11T16:21:49.707Z,9.4
2023-03-11T16:24:19.774Z,9.4
2023-03-11T16:26:50.265Z,9.4
2023-03-11T16:29:20.691Z,9.4
2023-03-11T16:31:50.532Z,9.4
2023-03-11T16:34:21.018Z,9.4
2023-03-11T16:36:51.388Z,9.3
2023-03-11T16:39:21.616Z,9.4
2023-03-11T16:41:52.434Z,9.4
2023-03-11T16:44:22.936Z,9.4
2023-03-11T16:46:52.999Z,9.3
2023-03-11T16:49:23.032Z,9.3
2023-03-11T16:51:52.987Z,9.3
2023-03-11T16:54:23.161Z,9.3
2023-03-11T16:56:51.763Z,9.3
2023-03-11T16:59:22.023Z,9.3
2023-03-11T17:01:52.388Z,9.2
2023-03-11T17:04:22.485Z,9.3
2023-03-11T17:06:52.709Z,9.3
2023-03-11T17:09:22.968Z,9.2
2023-03-11T17:11:53.246Z,9.2
2023-03-11T17:14:27.251Z,9.1
2023-03-11T17:16:58.230Z,9.1
2023-03-11T17:19:27.084Z,9.2
2023-03-11T17:21:57.557Z,9.2
2023-03-11T17:24:28.425Z,9.1
2023-03-11T17:26:58.884Z,9.2
2023-03-11T17:29:30.228Z,9.1
2023-03-11T17:32:00.926Z,9.1
2023-03-11T17:34:31.415Z,9.1
2023-03-11T17:37:01.608Z,9.1
2023-03-11T17:39:31.767Z,9
2023-03-11T17:42:02.172Z,8.9
2023-03-11T17:44:44.775Z,9
2023-03-11T17:47:02.938Z,8.9
2023-03-11T17:49:33.826Z,8.9
2023-03-11T17:52:03.960Z,8.8
2023-03-11T17:54:34.605Z,8.7
2023-03-11T17:57:04.736Z,8.8
2023-03-11T17:59:36.272Z,8.8
2023-03-11T18:02:06.789Z,8.7
2023-03-11T18:04:37.161Z,8.7
2023-03-11T18:07:08.459Z,8.7
2023-03-11T18:09:39.181Z,8.7
2023-03-11T18:12:09.174Z,8.7
2023-03-11T18:14:39.717Z,8.6
2023-03-11T18:17:10.604Z,8.5
2023-03-11T18:19:40.956Z,8.4
2023-03-11T18:22:11.047Z,8.4
2023-03-11T18:24:41.427Z,8.5
2023-03-11T18:27:11.856Z,8.5
2023-03-11T18:29:42.284Z,8.5
2023-03-11T18:32:12.471Z,8.4
2023-03-11T18:34:42.672Z,8.5
2023-03-11T18:37:12.848Z,8.4
2023-03-11T18:39:43.471Z,8.4
2023-03-11T18:42:13.867Z,8.4
2023-03-11T18:44:44.259Z,8.4
2023-03-11T18:47:14.520Z,8.5
2023-03-11T18:49:45.428Z,8.3
2023-03-11T18:52:15.888Z,8.4
2023-03-11T18:54:46.062Z,8.2
2023-03-11T18:57:16.268Z,8.1
2023-03-11T18:59:44.953Z,8
2023-03-11T19:02:15.295Z,8.1
2023-03-11T19:04:45.790Z,8.2
2023-03-11T19:07:16.425Z,8.3
2023-03-11T19:09:46.355Z,8.2
2023-03-11T19:12:16.575Z,8
2023-03-11T19:14:47.150Z,8
2023-03-11T19:17:18.590Z,8
2023-03-11T19:19:48.732Z,7.9
2023-03-11T19:22:18.722Z,7.9
2023-03-11T19:24:47.327Z,7.8
2023-03-11T19:27:17.500Z,7.9
2023-03-11T19:29:47.588Z,7.9
2023-03-11T19:32:18.517Z,7.8
2023-03-11T19:34:48.957Z,7.7
2023-03-11T19:37:19.199Z,7.7
2023-03-11T19:39:49.894Z,7.7
2023-03-11T19:42:20.224Z,7.7
2023-03-11T19:44:50.766Z,7.8
2023-03-11T19:47:21.366Z,7.8
2023-03-11T19:49:51.752Z,7.7
2023-03-11T19:52:21.729Z,7.7
2023-03-11T19:54:51.964Z,7.6
2023-03-11T19:57:22.409Z,7.7
2023-03-11T19:59:52.597Z,7.5
2023-03-11T20:02:25.656Z,7.5
2023-03-11T20:04:56.217Z,7.6
2023-03-11T20:07:26.926Z,7.5
2023-03-11T20:09:57.589Z,7.4
2023-03-11T20:12:27.692Z,7.3
2023-03-11T20:14:58.412Z,7.5
2023-03-11T20:17:28.318Z,7.4
2023-03-11T20:19:58.263Z,7.4
2023-03-11T20:22:29.284Z,7.4
2023-03-11T20:24:59.613Z,7.4
2023-03-11T20:27:30.247Z,7.4
2023-03-11T20:30:00.434Z,7.4
2023-03-11T20:32:30.797Z,7.3
2023-03-11T20:35:00.865Z,7.3
2023-03-11T20:37:31.266Z,7.4
2023-03-11T20:40:01.448Z,7.2
2023-03-11T20:42:31.662Z,7.3
2023-03-11T20:45:02.197Z,7.3
2023-03-11T20:47:32.592Z,7.3
2023-03-11T20:50:02.733Z,7.3
2023-03-11T20:52:33.099Z,7.3
2023-03-11T20:55:03.304Z,7.3
2023-03-11T20:57:34.130Z,7.4
2023-03-11T21:00:04.349Z,7.3
2023-03-11T21:02:34.888Z,7.2
2023-03-11T21:05:05.108Z,7.3
2023-03-11T21:07:35.833Z,7.2
2023-03-11T21:10:06.098Z,7.1
2023-03-11T21:12:36.386Z,7.1
2023-03-11T21:15:06.725Z,7.2
2023-03-11T21:17:37.194Z,7.2
2023-03-11T21:20:07.774Z,7.1
2023-03-11T21:22:38.715Z,6.9
2023-03-11T21:25:09.181Z,6.9
2023-03-11T21:27:41.317Z,6.9
2023-03-11T21:30:12.329Z,6.9
2023-03-11T21:32:40.925Z,6.7
2023-03-11T21:35:11.313Z,6.8
2023-03-11T21:37:42.137Z,6.8
2023-03-11T21:40:12.598Z,6.8
2023-03-11T21:42:42.866Z,6.8
2023-03-11T21:45:12.969Z,6.8
2023-03-11T21:47:43.281Z,6.7
2023-03-11T21:50:13.523Z,6.7
2023-03-11T21:52:43.831Z,6.6
2023-03-11T21:55:13.844Z,6.7
2023-03-11T21:57:45.482Z,6.6
2023-03-11T22:00:16.143Z,6.6
2023-03-11T22:02:46.432Z,6.6
2023-03-11T22:05:16.789Z,6.7
2023-03-11T22:07:47.436Z,6.6
2023-03-11T22:10:18.125Z,6.5
2023-03-11T22:12:48.473Z,6.4
2023-03-11T22:15:19.187Z,6.4
2023-03-11T22:17:49.884Z,6.4
2023-03-11T22:20:19.960Z,6.4
2023-03-11T22:22:50.530Z,6.3
2023-03-11T22:25:21.064Z,6.2
2023-03-11T22:27:51.259Z,6.3
2023-03-11T22:30:21.929Z,6.4
2023-03-11T22:32:53.283Z,6.3
2023-03-11T22:35:23.542Z,6.3
2023-03-11T22:37:53.890Z,6.3
2023-03-11T22:40:24.070Z,6.1
2023-03-11T22:42:55.062Z,6.1
2023-03-11T22:45:25.563Z,6.2
2023-03-11T22:47:55.872Z,6.3
2023-03-11T22:50:26.394Z,6.3
2023-03-11T22:52:57.104Z,6.3
2023-03-11T22:55:27.410Z,6.3
2023-03-11T22:57:56.593Z,6.3
2023-03-11T23:00:27.032Z,6.3
2023-03-11T23:02:57.366Z,6.3
2023-03-11T23:05:27.728Z,6.2
2023-03-11T23:07:58.111Z,6
2023-03-11T23:10:28.545Z,6.1
2023-03-11T23:12:59.319Z,6.1
2023-03-11T23:15:29.988Z,6.1
2023-03-11T23:18:00.384Z,6.1
2023-03-11T23:20:30.609Z,6
2023-03-11T23:23:01.093Z,5.7
2023-03-11T23:25:31.427Z,5.8
2023-03-11T23:28:02.067Z,5.8
2023-03-11T23:30:30.935Z,5.8
2023-03-11T23:33:01.617Z,5.7
2023-03-11T23:35:33.159Z,5.7
2023-03-11T23:38:03.489Z,5.6
2023-03-11T23:40:33.728Z,5.6
2023-03-11T23:43:04.035Z,5.7
2023-03-11T23:45:34.307Z,5.7
2023-03-11T23:48:04.829Z,5.6
2023-03-11T23:50:35.164Z,5.5
2023-03-11T23:53:05.988Z,5.2
2023-03-11T23:55:36.797Z,5.3
2023-03-11T23:58:07.216Z,5.2
